Time;durP1;ratioP1;P1;durP2;ratioP2;P2;SDS_P1;SDS_P2;PMS_P1;PMS_P2;Temp;Humidity;BMP_temperature;BMP_pressure;BME280_temperature;BME280_humidity;BME280_pressure;Samples;Min_cycle;Max_cycle;Signal;HPM_P1;HPM_P2
2022/02/11 00:01:13;;;;;;;17.35;2.08;;;;;;;5.80;64.73;102270.78;5027392;28;20126;-67
2022/02/11 00:06:56;;;;;;;14.80;2.22;;;;;;;5.85;64.63;102275.16;5026121;28;20507;-67
2022/02/11 00:09:21;;;;;;;15.40;2.25;;;;;;;5.80;64.88;102286.47;5025793;28;20088;-68
2022/02/11 00:11:47;;;;;;;20.73;4.00;;;;;;;5.87;65.48;102268.22;5025853;28;20013;-68
2022/02/11 00:14:12;;;;;;;9.80;2.28;;;;;;;5.92;65.86;102287.44;5027992;28;20049;-68
2022/02/11 00:16:40;;;;;;;9.73;2.05;;;;;;;5.89;66.37;102267.34;5058965;28;20545;-68
2022/02/11 00:19:05;;;;;;;11.23;2.22;;;;;;;5.86;66.69;102272.56;5056996;28;20057;-66
2022/02/11 00:21:31;;;;;;;10.90;2.10;;;;;;;5.85;67.13;102270.81;5027078;28;20480;-68
2022/02/11 00:23:57;;;;;;;19.77;2.55;;;;;;;5.77;67.25;102283.81;5027015;28;20025;-69
2022/02/11 00:26:31;;;;;;;12.93;2.20;;;;;;;5.77;67.73;102277.69;5059397;28;20273;-68
2022/02/11 00:34:33;;;;;;;23.48;2.45;;;;;;;5.72;68.12;102292.50;5046838;28;20090;-68
2022/02/11 00:37:08;;;;;;;17.83;2.50;;;;;;;5.80;67.84;102289.09;5045443;28;20471;-67
2022/02/11 01:06:24;;;;;;;13.18;2.35;;;;;;;5.67;69.45;102240.13;5046758;28;20511;-68
2022/02/11 01:08:49;;;;;;;8.80;2.00;;;;;;;5.62;70.07;102250.56;5033436;28;20030;-68
2022/02/11 01:11:22;;;;;;;15.23;2.95;;;;;;;5.62;69.90;102257.50;5026830;28;20468;-65
2022/02/11 01:13:48;;;;;;;13.15;1.95;;;;;;;5.76;69.92;102261.16;5025468;28;20559;-67
2022/02/11 01:16:19;;;;;;;16.73;2.38;;;;;;;5.78;69.59;102259.41;5026868;28;20029;-69
2022/02/11 01:18:51;;;;;;;19.17;2.53;;;;;;;5.79;70.03;102258.56;5026664;28;20381;-68
2022/02/11 01:21:24;;;;;;;18.50;3.03;;;;;;;5.95;69.83;102266.53;5041481;28;20541;-67
2022/02/11 01:24:07;;;;;;;17.13;2.60;;;;;;;5.96;70.95;102281.34;5045865;28;20100;-68
2022/02/11 01:26:47;;;;;;;17.90;2.83;;;;;;;5.77;72.31;102298.63;5046130;28;20032;-68
2022/02/11 01:32:01;;;;;;;12.10;2.60;;;;;;;5.34;75.81;102272.91;5039297;28;20396;-69
2022/02/11 01:39:59;;;;;;;15.32;2.78;;;;;;;5.17;78.54;102284.03;5046306;28;20595;-68
2022/02/11 02:03:33;;;;;;;14.90;1.90;;;;;;;5.25;74.55;102291.97;5026028;28;20053;-71
2022/02/11 02:09:13;;;;;;;16.00;2.15;;;;;;;5.34;73.76;102297.31;5034842;28;20094;-72
2022/02/11 02:57:11;;;;;;;26.88;3.38;;;;;;;5.52;71.06;102321.91;5023693;28;20148;-68
2022/02/11 03:35:03;;;;;;;21.80;4.30;;;;;;;5.05;74.20;102379.72;5025706;28;20044;-66
2022/02/11 03:54:19;;;;;;;31.70;3.97;;;;;;;5.24;71.69;102395.63;5027436;28;20113;-65
2022/02/11 04:25:31;;;;;;;17.05;2.60;;;;;;;4.75;70.76;102445.41;5027666;28;20029;-66
2022/02/11 04:56:36;;;;;;;20.60;2.78;;;;;;;4.95;71.71;102525.84;5028513;28;20050;-66
2022/02/11 05:01:46;;;;;;;23.80;3.28;;;;;;;5.04;72.21;102526.91;5045789;28;20032;-65
2022/02/11 05:04:11;;;;;;;28.38;3.70;;;;;;;5.04;72.45;102524.28;5046489;28;20033;-67
2022/02/11 05:06:36;;;;;;;35.35;4.78;;;;;;;5.05;72.28;102535.59;5047085;28;20114;-66
2022/02/11 05:09:02;;;;;;;21.63;3.85;;;;;;;5.08;72.32;102532.19;5038203;28;20030;-66
2022/02/11 05:11:29;;;;;;;19.33;3.17;;;;;;;5.02;71.77;102543.38;5027116;28;20104;-67
2022/02/11 05:13:54;;;;;;;26.55;3.97;;;;;;;5.03;71.77;102547.78;5025391;28;20045;-68
2022/02/11 05:16:19;;;;;;;21.42;3.45;;;;;;;4.94;71.77;102556.34;5026688;28;20040;-67
2022/02/11 05:18:44;;;;;;;33.83;5.63;;;;;;;4.85;70.68;102562.25;5025596;28;20074;-67
2022/02/11 05:21:10;;;;;;;37.17;4.03;;;;;;;4.91;70.79;102561.50;5023961;28;20139;-66
2022/02/11 05:23:35;;;;;;;17.40;3.42;;;;;;;4.80;71.01;102563.91;5028441;28;20039;-65
2022/02/11 05:26:01;;;;;;;19.48;3.20;;;;;;;4.82;70.71;102590.97;5026228;28;20031;-66
2022/02/11 05:28:26;;;;;;;24.20;3.72;;;;;;;4.76;70.99;102586.47;5025844;28;20018;-67
2022/02/11 05:30:52;;;;;;;24.05;2.88;;;;;;;4.78;71.12;102578.66;5025889;28;20116;-66
2022/02/11 05:33:17;;;;;;;26.95;3.53;;;;;;;4.69;71.77;102587.22;5025619;28;20021;-66
2022/02/11 05:35:43;;;;;;;21.85;3.30;;;;;;;4.65;71.68;102596.75;5026132;28;20506;-66
2022/02/11 05:38:08;;;;;;;23.08;3.85;;;;;;;4.65;71.56;102582.78;5025563;28;20033;-68
2022/02/11 05:40:34;;;;;;;25.95;3.33;;;;;;;4.71;71.21;102616.88;5029322;28;20138;-67
2022/02/11 05:42:59;;;;;;;24.23;4.43;;;;;;;4.66;70.25;102623.72;5025746;28;20026;-67
2022/02/11 05:45:24;;;;;;;14.60;3.33;;;;;;;4.71;69.96;102627.31;5025469;28;20060;-67
2022/02/11 05:47:50;;;;;;;18.77;2.75;;;;;;;4.69;69.75;102639.44;5024169;28;20048;-66
2022/02/11 05:50:15;;;;;;;18.67;2.90;;;;;;;4.75;69.49;102634.34;5024413;28;20193;-66
2022/02/11 05:52:40;;;;;;;20.60;2.67;;;;;;;4.78;69.07;102649.19;5026320;28;20050;-68
2022/02/11 05:55:06;;;;;;;21.92;2.88;;;;;;;4.74;67.64;102648.25;5029511;28;20052;-67
2022/02/11 05:57:31;;;;;;;22.33;2.85;;;;;;;4.84;68.08;102658.91;5031192;28;20025;-68
2022/02/11 05:59:59;;;;;;;19.23;2.22;;;;;;;4.89;67.94;102662.47;5025538;28;20041;-68
2022/02/11 06:02:24;;;;;;;18.58;3.45;;;;;;;4.89;68.12;102665.09;5026006;28;20426;-67
2022/02/11 06:04:49;;;;;;;15.13;2.70;;;;;;;4.83;68.19;102659.72;5025008;28;20076;-71
2022/02/11 06:07:15;;;;;;;19.92;3.42;;;;;;;4.77;68.95;102668.34;5024642;28;20022;-69
2022/02/11 06:09:41;;;;;;;22.35;3.75;;;;;;;4.76;69.03;102666.59;5024806;28;20022;-69
2022/02/11 06:12:07;;;;;;;15.25;3.47;;;;;;;4.74;69.15;102663.03;5006661;28;20033;-70
2022/02/11 06:14:33;;;;;;;25.85;3.38;;;;;;;4.67;69.20;102675.13;5003877;28;20192;-69
2022/02/11 06:16:59;;;;;;;19.85;3.75;;;;;;;4.63;69.79;102666.31;5004620;28;20037;-68
2022/02/11 06:19:24;;;;;;;27.50;3.55;;;;;;;4.64;69.32;102672.44;5003526;28;20030;-69
2022/02/11 06:21:49;;;;;;;22.70;3.28;;;;;;;4.63;69.82;102675.88;5005507;28;20052;-70
2022/02/11 06:24:15;;;;;;;33.63;3.92;;;;;;;4.59;70.04;102681.88;5017181;28;20039;-68
2022/02/11 06:26:41;;;;;;;20.20;3.42;;;;;;;4.52;70.63;102686.13;5026180;28;20454;-67
2022/02/11 06:29:07;;;;;;;25.85;4.03;;;;;;;4.52;70.62;102686.97;5024043;28;20032;-68
2022/02/11 06:31:32;;;;;;;18.73;2.33;;;;;;;4.55;70.57;102692.25;5024512;28;20026;-68
2022/02/11 06:33:58;;;;;;;18.13;3.13;;;;;;;4.63;70.66;102704.59;5024670;28;20034;-69
2022/02/11 06:36:23;;;;;;;21.65;3.65;;;;;;;4.52;71.42;102718.31;5024283;28;20021;-69
2022/02/11 06:38:48;;;;;;;23.05;2.80;;;;;;;4.61;71.96;102737.66;5024619;28;20030;-69
2022/02/11 06:41:14;;;;;;;18.67;3.15;;;;;;;4.52;72.49;102726.13;5023428;28;20412;-69
2022/02/11 06:43:39;;;;;;;20.33;2.72;;;;;;;4.47;69.65;102727.78;5041052;28;20030;-69
2022/02/11 06:46:04;;;;;;;21.63;4.30;;;;;;;4.40;66.94;102736.31;5025018;28;20521;-68
2022/02/11 06:48:31;;;;;;;20.00;3.03;;;;;;;4.34;66.22;102744.00;5024636;28;20041;-67
2022/02/11 06:50:59;;;;;;;15.82;2.00;;;;;;;4.28;66.22;102742.16;5042750;28;20037;-69
2022/02/11 06:53:24;;;;;;;27.95;3.90;;;;;;;4.25;67.10;102752.50;5031706;28;20068;-68
2022/02/11 06:55:50;;;;;;;27.15;3.50;;;;;;;4.18;68.06;102767.13;5025207;28;20222;-69
2022/02/11 06:58:15;;;;;;;22.98;3.17;;;;;;;4.24;68.34;102772.50;5024496;28;20446;-69
2022/02/11 07:00:45;;;;;;;20.98;3.65;;;;;;;4.34;68.85;102791.00;5025517;28;20057;-69
2022/02/11 07:03:10;;;;;;;;;;;;;;;4.29;71.13;102802.22;5025614;28;20029;-67
2022/02/11 07:05:36;;;;;;;18.63;2.70;;;;;;;4.13;74.04;102813.13;5024761;28;20004;-68
2022/02/11 07:08:01;;;;;;;16.77;2.67;;;;;;;3.97;75.30;102804.88;5023451;28;20038;-67
2022/02/11 07:10:27;;;;;;;18.65;2.30;;;;;;;3.91;75.79;102825.59;5023570;28;20440;-69
2022/02/11 07:12:52;;;;;;;23.25;3.13;;;;;;;3.75;76.64;102830.41;5024023;28;20025;-69
2022/02/11 07:15:18;;;;;;;29.70;3.83;;;;;;;3.66;77.13;102832.78;5024981;28;20044;-68
2022/02/11 07:17:43;;;;;;;17.35;2.00;;;;;;;3.59;77.63;102830.84;5025494;28;20156;-67
2022/02/11 07:20:11;;;;;;;22.38;2.72;;;;;;;3.50;77.45;102837.59;5041580;28;20033;-69
2022/02/11 07:22:37;;;;;;;16.90;2.90;;;;;;;3.43;77.39;102843.44;5048147;28;20082;-69
2022/02/11 07:25:08;;;;;;;26.38;2.60;;;;;;;3.44;77.33;102849.53;5043284;28;20032;-67
2022/02/11 07:27:34;;;;;;;21.05;2.78;;;;;;;3.44;77.48;102850.44;5015375;28;20091;-67
2022/02/11 07:29:59;;;;;;;13.85;2.30;;;;;;;3.41;77.60;102865.97;5027743;28;20021;-66
2022/02/11 07:32:25;;;;;;;20.60;3.65;;;;;;;3.40;77.76;102864.19;5027977;28;20112;-66
2022/02/11 07:34:54;;;;;;;20.50;2.95;;;;;;;3.39;78.08;102867.66;5027225;28;20013;-66
2022/02/11 07:37:20;;;;;;;13.85;2.45;;;;;;;3.39;77.86;102878.06;5027557;28;20367;-67
2022/02/11 07:39:45;;;;;;;32.95;3.58;;;;;;;3.45;77.87;102885.19;5027833;28;20026;-67
2022/02/11 07:42:11;;;;;;;22.38;2.72;;;;;;;3.50;77.62;102887.09;5028168;28;20032;-67
2022/02/11 07:44:36;;;;;;;21.52;3.00;;;;;;;3.56;77.55;102893.31;5027552;28;20369;-69
2022/02/11 07:47:02;;;;;;;25.40;3.40;;;;;;;3.59;77.54;102899.53;5028682;28;20474;-67
2022/02/11 07:49:27;;;;;;;20.25;2.88;;;;;;;3.71;77.15;102906.81;5029907;28;20033;-66
2022/02/11 07:51:52;;;;;;;32.47;4.30;;;;;;;3.82;77.17;102912.31;5028274;28;20035;-68
2022/02/11 07:54:18;;;;;;;23.50;3.03;;;;;;;3.88;76.61;102907.25;5027883;28;20033;-66
2022/02/11 07:56:43;;;;;;;26.52;3.08;;;;;;;3.86;76.58;102911.56;5028403;28;20022;-66
2022/02/11 07:59:08;;;;;;;22.80;3.17;;;;;;;3.93;76.58;102915.22;5027725;28;20069;-66
2022/02/11 08:01:34;;;;;;;17.88;2.97;;;;;;;3.94;76.82;102923.94;5026931;28;20511;-67
2022/02/11 08:04:00;;;;;;;27.67;4.40;;;;;;;4.00;76.46;102929.31;5026183;28;20034;-68
2022/02/11 08:06:25;;;;;;;24.25;3.17;;;;;;;4.13;76.06;102939.22;5026231;28;20032;-67
2022/02/11 08:08:51;;;;;;;19.98;3.13;;;;;;;4.29;75.86;102937.94;5026570;28;20040;-67
2022/02/11 08:11:16;;;;;;;25.33;2.95;;;;;;;4.41;75.39;102952.13;5026153;28;20029;-65
2022/02/11 08:13:41;;;;;;;30.90;5.07;;;;;;;4.42;74.06;102960.00;5027071;28;20037;-66
2022/02/11 08:16:07;;;;;;;26.45;2.97;;;;;;;4.46;73.74;102963.59;5026027;28;20029;-67
2022/02/11 08:18:33;;;;;;;24.35;5.00;;;;;;;4.45;72.11;102977.47;5026154;28;20083;-66
2022/02/11 08:20:58;;;;;;;23.85;3.28;;;;;;;4.47;71.26;102978.41;5026130;28;20025;-68
2022/02/11 08:23:25;;;;;;;19.77;3.53;;;;;;;4.49;70.81;102984.53;5026426;28;20430;-67
2022/02/11 08:25:50;;;;;;;28.65;3.40;;;;;;;4.49;68.51;102996.72;5027310;28;20279;-66
2022/02/11 08:28:16;;;;;;;30.27;3.13;;;;;;;4.44;67.90;102999.22;5027161;28;20395;-67
2022/02/11 08:30:42;;;;;;;13.00;2.05;;;;;;;4.47;61.89;103017.56;5027244;28;20029;-67
2022/02/11 08:33:07;;;;;;;15.10;2.33;;;;;;;4.62;61.29;103001.44;5024733;28;20028;-65
2022/02/11 08:35:33;;;;;;;22.45;3.38;;;;;;;4.58;61.68;103015.25;5026763;28;20092;-66
2022/02/11 08:37:58;;;;;;;18.35;2.53;;;;;;;4.61;61.33;103022.28;5025140;28;20040;-67
2022/02/11 08:40:23;;;;;;;17.67;3.47;;;;;;;4.62;61.17;103027.53;5026602;28;20099;-67
2022/02/11 08:42:49;;;;;;;26.75;2.50;;;;;;;4.69;60.74;103020.75;5026338;28;20373;-68
2022/02/11 08:45:14;;;;;;;25.52;3.22;;;;;;;4.74;59.40;103034.81;5027096;28;20138;-68
2022/02/11 08:47:39;;;;;;;27.33;2.60;;;;;;;4.77;60.02;103047.97;5026862;28;20025;-67
2022/02/11 08:50:06;;;;;;;18.17;2.38;;;;;;;4.80;60.96;103045.44;5024761;28;20475;-66
2022/02/11 08:52:31;;;;;;;21.27;2.33;;;;;;;4.89;60.71;103054.34;5026770;28;20034;-67
2022/02/11 08:54:57;;;;;;;13.55;3.35;;;;;;;4.94;60.03;103057.97;5024543;28;20040;-65
2022/02/11 08:57:22;;;;;;;22.50;3.13;;;;;;;5.00;60.93;103062.47;5024263;28;20013;-66
2022/02/11 08:59:47;;;;;;;18.05;2.72;;;;;;;5.06;61.64;103068.72;5016744;28;20391;-67
2022/02/11 09:02:14;;;;;;;14.77;2.63;;;;;;;5.09;61.85;103057.44;5022791;28;20073;-66
2022/02/11 09:04:40;;;;;;;18.15;3.03;;;;;;;5.12;60.50;103070.59;5025059;28;20111;-67
2022/02/11 09:07:06;;;;;;;18.48;2.25;;;;;;;5.19;60.49;103069.03;5025223;28;20014;-66
2022/02/11 09:09:32;;;;;;;20.98;2.95;;;;;;;5.24;60.47;103075.22;5024900;28;20337;-67
2022/02/11 09:11:57;;;;;;;15.10;2.63;;;;;;;5.28;60.86;103077.09;5025233;28;20041;-67
2022/02/11 09:14:22;;;;;;;12.98;2.47;;;;;;;5.30;60.80;103080.63;5025950;28;20056;-65
2022/02/11 09:16:48;;;;;;;22.17;3.20;;;;;;;5.35;60.01;103088.56;5023903;28;20104;-65
2022/02/11 09:19:13;;;;;;;18.33;3.20;;;;;;;5.42;59.82;103092.25;5025964;28;20124;-67
2022/02/11 09:21:38;;;;;;;19.23;3.13;;;;;;;5.42;59.26;103113.16;5025756;28;20026;-67
2022/02/11 09:24:04;;;;;;;17.52;2.42;;;;;;;5.46;58.66;103104.53;5025548;28;20119;-65
2022/02/11 09:26:29;;;;;;;11.00;2.33;;;;;;;5.50;57.36;103114.22;5025659;28;20056;-66
2022/02/11 09:28:54;;;;;;;16.17;2.00;;;;;;;5.65;57.34;103098.00;5025472;28;20037;-66
2022/02/11 09:31:26;;;;;;;20.27;2.55;;;;;;;5.81;57.85;103111.44;5039597;28;20055;-65
2022/02/11 09:33:52;;;;;;;22.55;3.35;;;;;;;5.96;56.09;103115.25;5025316;28;20051;-65
2022/02/11 09:36:19;;;;;;;20.27;3.10;;;;;;;6.06;56.36;103118.13;5025641;28;20014;-66
2022/02/11 09:38:44;;;;;;;24.02;3.20;;;;;;;6.05;56.88;103126.81;5023870;28;20083;-65
2022/02/11 09:41:10;;;;;;;20.20;2.55;;;;;;;5.84;54.59;103145.50;5025632;28;20060;-65
2022/02/11 09:43:35;;;;;;;9.57;3.05;;;;;;;5.77;53.58;103147.13;5006154;28;20115;-66
2022/02/11 09:46:01;;;;;;;18.83;2.53;;;;;;;5.66;53.73;103145.97;5022755;28;20021;-65
2022/02/11 09:48:27;;;;;;;13.23;1.80;;;;;;;5.67;54.04;103163.44;5025104;28;20570;-65
2022/02/11 09:50:56;;;;;;;11.68;2.97;;;;;;;5.71;54.28;103169.59;5024269;28;20033;-65
2022/02/11 09:53:25;;;;;;;14.82;2.38;;;;;;;5.66;52.15;103173.00;5025050;28;20018;-66
2022/02/11 09:55:51;;;;;;;10.50;2.20;;;;;;;5.70;51.67;103179.22;5024544;28;20022;-66
2022/02/11 09:58:19;;;;;;;9.60;1.83;;;;;;;5.72;51.95;103167.03;5024321;28;20043;-62
2022/02/11 10:00:48;;;;;;;15.53;2.63;;;;;;;5.73;51.94;103160.97;5024128;28;20021;-61
2022/02/11 10:03:23;;;;;;;11.57;1.95;;;;;;;5.76;52.74;103161.03;5024949;28;20168;-62
2022/02/11 10:05:54;;;;;;;17.00;3.08;;;;;;;5.79;52.98;103174.22;5024863;28;20067;-62
2022/02/11 10:08:19;;;;;;;14.57;2.20;;;;;;;5.89;52.16;103177.00;5007277;28;20021;-63
2022/02/11 10:10:48;;;;;;;10.93;2.08;;;;;;;5.98;52.44;103192.94;5012563;28;20097;-64
2022/02/11 10:13:31;;;;;;;9.30;2.13;;;;;;;6.04;52.80;103190.50;4973992;28;20081;-63
2022/02/11 10:16:08;;;;;;;8.63;1.83;;;;;;;6.13;50.81;103192.44;5003457;28;20755;-62
2022/02/11 10:18:36;;;;;;;19.75;3.03;;;;;;;6.07;50.20;103195.81;5001960;28;20088;-63
2022/02/11 10:21:04;;;;;;;9.48;1.73;;;;;;;6.21;50.99;103189.13;5004747;28;20029;-64
2022/02/11 10:23:32;;;;;;;18.13;2.38;;;;;;;6.40;51.71;103201.78;5005070;28;20067;-64
2022/02/11 10:26:10;;;;;;;12.85;2.45;;;;;;;6.59;51.40;103217.00;4998295;28;20091;-64
2022/02/11 10:28:43;;;;;;;13.80;1.83;;;;;;;6.59;51.66;103217.88;5005812;28;20028;-63
2022/02/11 10:31:08;;;;;;;15.93;2.40;;;;;;;6.55;51.99;103226.53;5001026;28;20055;-63
2022/02/11 10:34:00;;;;;;;18.38;2.30;;;;;;;6.71;52.84;103227.72;5000915;28;20033;-63
2022/02/11 10:36:30;;;;;;;14.90;3.22;;;;;;;6.51;54.10;103230.81;4997078;28;20091;-64
2022/02/11 10:39:05;;;;;;;17.38;4.13;;;;;;;6.35;55.30;103233.94;5001349;28;20140;-64
2022/02/11 10:41:32;;;;;;;24.08;2.90;;;;;;;6.41;56.43;103244.56;4992231;28;20057;-62
2022/02/11 10:43:59;;;;;;;20.02;3.30;;;;;;;6.27;57.88;103253.00;5004719;28;20022;-63
2022/02/11 10:46:24;;;;;;;23.88;3.85;;;;;;;6.22;57.37;103254.59;4998132;28;20049;-63
2022/02/11 10:48:50;;;;;;;20.50;2.97;;;;;;;6.30;56.77;103260.03;5003559;28;20080;-62
2022/02/11 10:51:23;;;;;;;16.42;3.13;;;;;;;6.35;56.36;103260.13;5005069;28;20124;-61
2022/02/11 10:53:49;;;;;;;14.35;2.03;;;;;;;6.48;55.83;103263.91;5005387;28;20053;-62
2022/02/11 10:56:15;;;;;;;16.67;2.65;;;;;;;6.69;53.21;103274.00;5006527;28;20064;-62
2022/02/11 10:58:41;;;;;;;11.60;2.25;;;;;;;6.62;52.56;103277.31;5003083;28;20032;-64
2022/02/11 11:01:06;;;;;;;12.35;1.95;;;;;;;6.45;50.91;103283.06;5007739;28;20025;-64
2022/02/11 11:03:35;;;;;;;10.30;2.53;;;;;;;6.45;49.92;103277.84;5009416;28;20542;-65
2022/02/11 11:06:01;;;;;;;10.65;1.65;;;;;;;6.49;49.46;103281.38;5009284;28;20120;-64
2022/02/11 11:08:28;;;;;;;16.48;1.85;;;;;;;6.69;49.31;103295.81;5006819;28;20030;-63
2022/02/11 11:10:55;;;;;;;4.75;1.50;;;;;;;6.84;47.95;103289.16;5008619;28;20476;-64
2022/02/11 11:13:21;;;;;;;10.02;2.05;;;;;;;6.86;48.07;103276.09;5003769;28;20095;-64
2022/02/11 11:15:48;;;;;;;15.40;2.03;;;;;;;6.88;47.27;103276.97;5006634;28;20029;-64
2022/02/11 11:18:17;;;;;;;12.13;1.83;;;;;;;6.83;46.82;103287.38;5008019;28;20029;-63
2022/02/11 11:20:45;;;;;;;5.18;1.35;;;;;;;6.91;45.92;103282.28;5009580;28;20033;-65
2022/02/11 11:23:22;;;;;;;8.93;1.45;;;;;;;6.75;45.77;103291.56;5008218;28;20029;-63
2022/02/11 11:26:06;;;;;;;9.35;1.25;;;;;;;6.67;45.25;103283.53;5001893;28;20029;-64
2022/02/11 11:28:41;;;;;;;4.53;1.30;;;;;;;6.56;45.47;103284.19;5009151;28;20037;-62
2022/02/11 11:31:21;;;;;;;7.00;1.38;;;;;;;6.59;45.92;103290.34;5004440;28;20102;-62
2022/02/11 11:33:47;;;;;;;9.23;1.92;;;;;;;6.67;46.87;103296.63;5008017;28;20193;-61
2022/02/11 11:36:14;;;;;;;14.32;2.30;;;;;;;6.80;46.85;103301.28;5009372;28;20548;-62
2022/02/11 11:38:43;;;;;;;7.75;1.75;;;;;;;6.87;45.94;103290.94;5007958;28;20022;-63
2022/02/11 11:41:21;;;;;;;14.27;2.28;;;;;;;6.83;45.49;103310.94;5003797;28;20108;-63
2022/02/11 11:43:57;;;;;;;6.05;1.35;;;;;;;6.88;45.14;103290.97;5004311;28;20087;-64
2022/02/11 11:46:33;;;;;;;11.98;1.67;;;;;;;7.03;44.81;103297.41;5005985;28;20448;-63
2022/02/11 11:49:00;;;;;;;11.68;1.40;;;;;;;7.17;43.66;103300.31;5006713;28;20026;-62
2022/02/11 11:51:51;;;;;;;8.38;1.60;;;;;;;7.40;43.98;103311.25;5007193;28;20300;-64
2022/02/11 11:54:23;;;;;;;7.30;1.40;;;;;;;7.38;44.39;103315.59;5005562;28;20479;-63
2022/02/11 11:56:54;;;;;;;7.75;1.60;;;;;;;7.36;44.54;103311.16;4996830;28;20534;-65
2022/02/11 11:59:22;;;;;;;8.90;1.90;;;;;;;7.57;44.35;103310.69;5006211;28;20454;-63
2022/02/11 12:01:50;;;;;;;6.78;1.30;;;;;;;7.76;44.56;103297.88;5005345;28;20025;-62
2022/02/11 12:04:21;;;;;;;14.00;2.30;;;;;;;7.82;44.75;103311.13;5006984;28;20485;-64
2022/02/11 12:06:52;;;;;;;14.48;1.60;;;;;;;7.67;45.72;103317.88;5005485;28;20018;-64
2022/02/11 12:09:17;;;;;;;7.43;1.40;;;;;;;7.58;43.99;103321.22;5000988;28;20024;-63
2022/02/11 12:11:43;;;;;;;8.77;1.08;;;;;;;7.64;43.28;103303.78;5003135;28;20379;-63
2022/02/11 12:14:09;;;;;;;10.73;1.88;;;;;;;7.58;43.67;103308.09;5017734;28;20049;-63
2022/02/11 12:16:34;;;;;;;16.58;1.70;;;;;;;7.95;44.13;103315.72;5025320;28;20104;-62
2022/02/11 12:19:00;;;;;;;8.45;1.80;;;;;;;8.93;41.66;103310.19;5026253;28;20025;-63
2022/02/11 12:21:25;;;;;;;10.82;1.35;;;;;;;9.71;39.78;103316.31;5026499;28;20057;-62
2022/02/11 12:29:21;;;;;;;6.43;1.42;;;;;;;11.03;38.15;103313.72;5024861;28;20152;-67
2022/02/11 12:31:51;;;;;;;8.93;1.55;;;;;;;10.83;39.21;103319.78;5022645;28;20021;-64
2022/02/11 12:34:20;;;;;;;11.52;1.60;;;;;;;10.77;38.62;103316.25;5024824;28;20018;-64
2022/02/11 12:36:46;;;;;;;10.23;1.65;;;;;;;9.96;40.33;103321.78;5024477;28;20027;-63
2022/02/11 12:39:17;;;;;;;11.95;2.15;;;;;;;9.12;43.02;103334.97;5022637;28;20466;-64
2022/02/11 12:41:44;;;;;;;14.50;2.58;;;;;;;8.28;47.33;103346.91;5025246;28;20476;-64
2022/02/11 12:44:10;;;;;;;16.15;2.72;;;;;;;7.67;51.17;103343.22;5023959;28;20064;-65
2022/02/11 12:46:35;;;;;;;21.98;2.53;;;;;;;7.36;55.06;103332.13;5025441;28;20076;-64
2022/02/11 12:49:00;;;;;;;9.77;2.65;;;;;;;7.08;56.47;103327.22;5022999;28;20041;-64
2022/02/11 12:51:26;;;;;;;19.25;2.22;;;;;;;7.18;55.41;103333.53;5024903;28;20535;-63
2022/02/11 12:54:04;;;;;;;19.10;2.58;;;;;;;7.52;53.05;103336.81;5020422;28;20837;-65
2022/02/11 12:56:33;;;;;;;14.48;2.00;;;;;;;7.61;52.38;103333.50;5025152;28;20116;-65
2022/02/11 12:59:09;;;;;;;18.17;2.47;;;;;;;7.66;53.08;103333.59;5023680;28;20159;-65
2022/02/11 13:01:35;;;;;;;14.80;2.35;;;;;;;7.76;52.63;103326.75;5023700;28;20086;-63
2022/02/11 13:04:00;;;;;;;13.80;2.03;;;;;;;7.64;53.95;103337.91;5022676;28;20475;-64
2022/02/11 13:06:26;;;;;;;14.05;1.95;;;;;;;7.46;54.70;103340.22;5025756;28;20633;-64
2022/02/11 13:09:05;;;;;;;11.43;1.85;;;;;;;7.33;54.80;103338.22;5024503;28;20022;-64
2022/02/11 13:11:31;;;;;;;20.27;3.20;;;;;;;7.37;53.69;103333.94;5024462;28;20098;-67
2022/02/11 13:14:06;;;;;;;15.75;2.67;;;;;;;7.25;54.71;103335.44;5023623;28;20657;-64
2022/02/11 13:16:33;;;;;;;13.43;2.55;;;;;;;7.07;57.04;103349.94;5023505;28;20017;-67
2022/02/11 13:19:09;;;;;;;15.25;1.98;;;;;;;6.96;58.26;103356.69;5023095;28;20060;-64
2022/02/11 13:21:35;;;;;;;10.48;1.92;;;;;;;6.70;58.79;103346.50;5021913;28;20025;-64
2022/02/11 13:24:02;;;;;;;12.82;2.10;;;;;;;6.52;59.54;103366.19;5022304;28;20025;-64
2022/02/11 13:26:27;;;;;;;21.05;2.97;;;;;;;6.38;58.73;103362.34;5024887;28;20014;-64
2022/02/11 13:28:55;;;;;;;9.20;1.75;;;;;;;6.32;59.50;103361.34;5037925;28;20487;-64
2022/02/11 13:31:21;;;;;;;17.15;2.38;;;;;;;6.39;59.95;103361.50;5023703;28;20029;-65
2022/02/11 13:33:46;;;;;;;8.63;2.00;;;;;;;6.90;59.48;103369.66;5021213;28;20106;-64
2022/02/11 13:36:22;;;;;;;10.70;1.80;;;;;;;8.12;55.48;103366.78;5024641;28;20026;-64
2022/02/11 13:38:49;;;;;;;11.25;2.03;;;;;;;8.56;53.29;103365.75;5024555;28;20499;-65
2022/02/11 13:41:15;;;;;;;12.15;1.95;;;;;;;9.01;52.11;103365.50;5022891;28;20021;-64
2022/02/11 13:43:58;;;;;;;10.30;1.75;;;;;;;9.37;51.23;103364.22;5022539;28;20017;-64
2022/02/11 13:46:30;;;;;;;13.48;1.95;;;;;;;9.02;49.56;103362.00;5022761;28;20040;-64
2022/02/11 13:49:12;;;;;;;16.60;1.80;;;;;;;9.18;48.50;103360.50;5021451;28;20440;-64
2022/02/11 13:51:39;;;;;;;7.97;1.80;;;;;;;9.23;47.22;103364.94;5023689;28;20063;-65
2022/02/11 13:54:18;;;;;;;6.07;1.40;;;;;;;9.45;45.45;103362.53;5023442;28;20071;-65
2022/02/11 13:56:49;;;;;;;6.72;1.75;;;;;;;10.55;43.15;103371.47;5021412;28;20026;-64
2022/02/11 13:59:26;;;;;;;9.43;1.50;;;;;;;11.32;39.49;103362.22;5023464;28;20032;-63
2022/02/11 14:02:02;;;;;;;6.38;1.25;;;;;;;11.35;38.96;103364.88;5023564;28;20488;-65
2022/02/11 14:04:32;;;;;;;5.95;1.35;;;;;;;10.83;40.09;103374.28;5023908;28;20025;-68
2022/02/11 14:06:58;;;;;;;7.57;1.73;;;;;;;10.18;42.49;103372.03;5025088;28;20049;-66
2022/02/11 14:09:27;;;;;;;7.43;1.92;;;;;;;9.95;43.64;103370.06;5025006;28;20067;-69
2022/02/11 14:11:52;;;;;;;;;;;;;;;10.10;42.70;103374.59;5025211;28;20072;-71
2022/02/11 14:14:21;;;;;;;11.25;1.92;;;;;;;10.79;41.48;103370.75;5023977;28;19961;-74
2022/02/11 14:16:49;;;;;;;8.45;1.40;;;;;;;10.35;41.99;103380.97;5024617;28;20029;-70
2022/02/11 14:19:24;;;;;;;10.55;1.70;;;;;;;9.78;43.29;103388.38;5024503;28;20030;-67
2022/02/11 14:21:59;;;;;;;6.60;1.58;;;;;;;10.41;43.42;103388.03;5015895;28;20447;-67
2022/02/11 14:24:26;;;;;;;6.78;1.80;;;;;;;11.81;40.65;103382.59;5023462;28;20470;-70
2022/02/11 14:26:52;;;;;;;12.18;1.90;;;;;;;12.44;38.34;103393.22;5021028;28;20021;-69
2022/02/11 14:29:18;;;;;;;13.70;1.83;;;;;;;12.52;38.23;103399.34;5020543;28;20520;-68
2022/02/11 14:31:45;;;;;;;6.65;1.52;;;;;;;11.82;41.55;103394.91;5020716;28;20048;-68
2022/02/11 14:34:11;;;;;;;9.07;1.83;;;;;;;10.95;43.94;103405.13;5022443;28;20029;-63
2022/02/11 14:36:38;;;;;;;10.40;1.80;;;;;;;10.11;46.06;103400.06;5020457;28;20044;-71
2022/02/11 14:39:04;;;;;;;8.55;2.08;;;;;;;9.43;48.45;103410.78;5019237;28;20038;-64
2022/02/11 14:41:48;;;;;;;7.28;1.60;;;;;;;8.55;51.10;103413.94;5012830;28;20129;-63
2022/02/11 14:44:14;;;;;;;16.02;2.17;;;;;;;7.83;53.53;103412.66;5013852;28;20026;-64
2022/02/11 14:46:39;;;;;;;15.95;2.10;;;;;;;7.87;54.57;103413.59;5011707;28;20179;-65
2022/02/11 14:49:05;;;;;;;9.75;1.90;;;;;;;7.69;54.84;103404.50;5006876;28;20030;-65
2022/02/11 14:51:31;;;;;;;11.07;2.20;;;;;;;7.57;54.40;103407.78;5010831;28;20060;-74
2022/02/11 14:53:58;;;;;;;12.75;2.08;;;;;;;7.34;55.68;103405.53;5018014;28;20017;-73
2022/02/11 14:56:23;;;;;;;9.45;1.88;;;;;;;7.22;56.64;103407.94;5015732;28;20638;-74
2022/02/11 14:58:49;;;;;;;8.73;1.83;;;;;;;7.05;56.95;103411.06;5012830;28;20113;-74
2022/02/11 15:01:14;;;;;;;7.75;1.67;;;;;;;7.02;56.74;103417.13;5014773;28;20377;-69
2022/02/11 15:03:40;;;;;;;14.88;2.50;;;;;;;6.97;56.72;103413.50;5013298;28;20431;-68
2022/02/11 15:06:05;;;;;;;19.13;2.92;;;;;;;6.94;57.19;103422.19;5011537;28;20033;-69
2022/02/11 15:08:30;;;;;;;19.60;1.90;;;;;;;7.00;57.73;103423.16;5014733;28;20026;-70
2022/02/11 15:10:55;;;;;;;9.32;1.90;;;;;;;6.95;57.28;103425.66;5021590;28;20029;-69
2022/02/11 15:13:21;;;;;;;9.60;1.83;;;;;;;6.99;57.58;103422.28;5019723;28;20809;-69
2022/02/11 15:15:46;;;;;;;16.73;2.05;;;;;;;7.58;55.67;103414.78;5020671;28;20044;-69
2022/02/11 15:18:12;;;;;;;10.93;2.22;;;;;;;8.54;52.31;103428.81;5020872;28;20038;-67
2022/02/11 15:20:43;;;;;;;13.10;2.25;;;;;;;8.85;51.16;103418.78;5021402;28;20032;-68